createdAt,value
2023-01-22T00:01:40.195Z,-0.01
2023-01-22T00:04:07.757Z,-0.02
2023-01-22T00:06:35.298Z,-0.06
2023-01-22T00:09:04.657Z,-0.07
2023-01-22T00:11:32.298Z,-0.04
2023-01-22T00:13:59.992Z,-0.03
2023-01-22T00:16:27.466Z,0.01
2023-01-22T00:18:54.999Z,0.00
2023-01-22T00:21:22.735Z,0.01
2023-01-22T00:23:50.234Z,-0.01
2023-01-22T00:26:20.839Z,-0.04
2023-01-22T00:28:48.336Z,-0.02
2023-01-22T00:31:17.407Z,-0.04
2023-01-22T00:36:20.079Z,-0.09
2023-01-22T00:38:48.145Z,-0.10
2023-01-22T00:41:17.147Z,-0.07
2023-01-22T00:43:46.295Z,-0.05
2023-01-22T00:46:15.514Z,-0.03
2023-01-22T00:48:45.173Z,-0.05
2023-01-22T00:51:14.828Z,-0.05
2023-01-22T00:53:43.719Z,-0.07
2023-01-22T00:56:12.368Z,-0.06
2023-01-22T00:58:39.883Z,-0.08
2023-01-22T01:01:09.351Z,-0.07
2023-01-22T01:03:37.662Z,-0.05
2023-01-22T01:06:08.414Z,-0.04
2023-01-22T01:08:37.880Z,-0.02
2023-01-22T01:11:08.082Z,0.02
2023-01-22T01:13:39.019Z,0.01
2023-01-22T01:16:10.228Z,0.02
2023-01-22T01:18:38.199Z,0.01
2023-01-22T01:21:07.496Z,0.02
2023-01-22T01:23:36.284Z,0.07
2023-01-22T01:26:06.448Z,0.08
2023-01-22T01:28:35.842Z,0.06
2023-01-22T01:31:05.083Z,0.03
2023-01-22T01:33:34.115Z,0.02
2023-01-22T01:36:02.990Z,0.05
2023-01-22T01:38:30.535Z,0.08
2023-01-22T01:40:58.242Z,0.09
2023-01-22T01:43:26.319Z,0.09
2023-01-22T01:45:54.817Z,0.09
2023-01-22T01:48:30.928Z,0.09
2023-01-22T01:51:05.917Z,0.09
2023-01-22T01:53:34.297Z,0.10
2023-01-22T01:56:04.381Z,0.07
2023-01-22T01:58:34.962Z,0.04
2023-01-22T02:01:09.049Z,0.04
2023-01-22T02:03:36.700Z,0.03
2023-01-22T02:06:06.066Z,0.05
2023-01-22T02:08:33.802Z,0.07
2023-01-22T02:11:01.493Z,0.08
2023-01-22T02:13:33.228Z,0.08
2023-01-22T02:16:00.888Z,0.08
2023-01-22T02:18:28.563Z,0.08
2023-01-22T02:20:59.543Z,0.08
2023-01-22T02:23:27.979Z,0.08
2023-01-22T02:25:55.954Z,0.11
2023-01-22T02:28:23.485Z,0.11
2023-01-22T02:30:51.232Z,0.09
2023-01-22T02:33:18.771Z,0.09
2023-01-22T02:35:46.289Z,0.09
2023-01-22T02:38:15.136Z,0.03
2023-01-22T02:40:49.117Z,-0.03
2023-01-22T02:43:17.340Z,-0.02
2023-01-22T02:45:44.989Z,-0.06
2023-01-22T02:48:12.556Z,-0.05
2023-01-22T02:50:40.136Z,-0.03
2023-01-22T02:53:07.666Z,0.01
2023-01-22T02:55:36.759Z,0.03
2023-01-22T02:58:04.363Z,0.02
2023-01-22T03:00:32.181Z,-0.01
2023-01-22T03:02:59.727Z,0.02
2023-01-22T03:05:27.295Z,0.02
2023-01-22T03:07:54.786Z,0.02
2023-01-22T03:10:22.369Z,-0.01
2023-01-22T03:13:08.979Z,-0.06
2023-01-22T03:15:56.899Z,-0.09
2023-01-22T03:18:42.047Z,-0.11
2023-01-22T03:21:15.646Z,-0.12
2023-01-22T03:23:43.560Z,-0.12
2023-01-22T03:26:12.031Z,-0.11
2023-01-22T03:28:40.920Z,-0.10
2023-01-22T03:31:09.507Z,-0.10
2023-01-22T03:33:37.426Z,-0.13
2023-01-22T03:36:07.580Z,-0.12
2023-01-22T03:38:35.426Z,-0.10
2023-01-22T03:41:04.781Z,-0.05
2023-01-22T03:43:32.748Z,-0.03
2023-01-22T03:46:06.989Z,0.02
2023-01-22T03:48:34.547Z,0.04
2023-01-22T03:51:06.993Z,0.07
2023-01-22T03:53:35.113Z,0.12
2023-01-22T03:56:04.563Z,0.16
2023-01-22T03:58:32.974Z,0.19
2023-01-22T04:01:02.528Z,0.17
2023-01-22T04:03:31.907Z,0.13
2023-01-22T04:06:01.078Z,0.09
2023-01-22T04:08:30.089Z,0.10
2023-01-22T04:10:58.754Z,0.11
2023-01-22T04:13:27.341Z,0.11
2023-01-22T04:15:54.996Z,0.12
2023-01-22T04:18:22.598Z,0.16
2023-01-22T04:20:52.256Z,0.18
2023-01-22T04:23:20.328Z,0.19
2023-01-22T04:25:48.249Z,0.22
2023-01-22T04:28:17.457Z,0.21
2023-01-22T04:30:46.995Z,0.21
2023-01-22T04:33:14.729Z,0.20
2023-01-22T04:35:42.469Z,0.18
2023-01-22T04:38:14.766Z,0.19
2023-01-22T04:40:42.279Z,0.22
2023-01-22T04:43:11.429Z,0.21
2023-01-22T04:45:39.267Z,0.23
2023-01-22T04:48:08.383Z,0.20
2023-01-22T04:50:36.275Z,0.16
2023-01-22T04:53:05.039Z,0.13
2023-01-22T04:55:34.145Z,0.13
2023-01-22T04:58:02.323Z,0.15
2023-01-22T05:00:31.573Z,0.14
2023-01-22T05:02:59.940Z,0.13
2023-01-22T05:05:28.509Z,0.13
2023-01-22T05:07:56.140Z,0.14
2023-01-22T05:10:24.099Z,0.15
2023-01-22T05:12:53.274Z,0.14
2023-01-22T05:15:25.208Z,0.14
2023-01-22T05:17:53.415Z,0.15
2023-01-22T05:20:21.256Z,0.19
2023-01-22T05:22:49.371Z,0.17
2023-01-22T05:25:17.050Z,0.18
2023-01-22T05:27:44.940Z,0.19
2023-01-22T05:30:14.576Z,0.22
2023-01-22T05:32:42.171Z,0.24
2023-01-22T05:35:10.425Z,0.25
2023-01-22T05:37:37.934Z,0.23
2023-01-22T05:40:06.766Z,0.24
2023-01-22T05:42:36.462Z,0.25
2023-01-22T05:45:04.234Z,0.26
2023-01-22T05:47:33.091Z,0.26
2023-01-22T05:50:00.597Z,0.22
2023-01-22T05:52:28.229Z,0.19
2023-01-22T05:54:55.704Z,0.17
2023-01-22T05:57:23.228Z,0.19
2023-01-22T05:59:50.784Z,0.20
2023-01-22T06:02:21.227Z,0.21
2023-01-22T06:04:50.128Z,0.25
2023-01-22T06:07:17.612Z,0.27
2023-01-22T06:09:45.096Z,0.27
2023-01-22T06:12:12.681Z,0.29
2023-01-22T06:14:40.185Z,0.28
2023-01-22T06:17:07.665Z,0.31
2023-01-22T06:19:35.159Z,0.37
2023-01-22T06:22:04.116Z,0.41
2023-01-22T06:24:31.645Z,0.44
2023-01-22T06:26:59.184Z,0.44
2023-01-22T06:29:26.771Z,0.40
2023-01-22T06:31:54.330Z,0.40
2023-01-22T06:34:21.921Z,0.36
2023-01-22T06:36:52.749Z,0.32
2023-01-22T06:39:21.825Z,0.28
2023-01-22T06:41:51.059Z,0.28
2023-01-22T06:44:19.344Z,0.21
2023-01-22T06:46:47.615Z,0.20
2023-01-22T06:49:15.494Z,0.19
2023-01-22T06:51:47.125Z,0.19
2023-01-22T06:54:15.141Z,0.23
2023-01-22T06:56:44.175Z,0.24
2023-01-22T06:59:14.143Z,0.23
2023-01-22T07:01:45.344Z,0.23
2023-01-22T07:04:13.066Z,0.25
2023-01-22T07:06:40.986Z,0.27
2023-01-22T07:09:09.569Z,0.32
2023-01-22T07:11:37.329Z,0.34
2023-01-22T07:14:13.926Z,0.37
2023-01-22T07:16:42.304Z,0.34
2023-01-22T07:19:09.869Z,0.35
2023-01-22T07:21:37.463Z,0.39
2023-01-22T07:24:07.554Z,0.38
2023-01-22T07:26:37.235Z,0.43
2023-01-22T07:29:14.286Z,0.46
2023-01-22T07:31:49.871Z,0.46
2023-01-22T07:34:22.706Z,0.49
2023-01-22T07:37:05.958Z,0.50
2023-01-22T07:39:55.294Z,0.49
2023-01-22T07:42:32.978Z,0.51
2023-01-22T07:45:12.439Z,0.53
2023-01-22T07:47:48.050Z,0.48
2023-01-22T07:50:20.929Z,0.46
2023-01-22T07:52:54.157Z,0.48
2023-01-22T07:55:31.830Z,0.39
2023-01-22T07:58:02.840Z,0.40
2023-01-22T08:00:43.662Z,0.43
2023-01-22T08:03:19.002Z,0.46
2023-01-22T08:05:53.948Z,0.40
2023-01-22T08:08:24.488Z,0.38
2023-01-22T08:11:04.357Z,0.40
2023-01-22T08:13:35.813Z,0.44
2023-01-22T08:16:18.410Z,0.46
2023-01-22T08:18:56.266Z,0.49
2023-01-22T08:21:50.828Z,0.51
2023-01-22T08:24:22.673Z,0.50
2023-01-22T08:26:59.195Z,0.48
2023-01-22T08:29:40.930Z,0.51
2023-01-22T08:32:18.536Z,0.52
2023-01-22T08:34:57.209Z,0.51
2023-01-22T08:37:36.083Z,0.49
2023-01-22T08:40:09.007Z,0.46
2023-01-22T08:42:36.832Z,0.40
2023-01-22T08:45:04.919Z,0.40
2023-01-22T08:47:34.000Z,0.43
2023-01-22T08:50:02.854Z,0.46
2023-01-22T08:52:30.669Z,0.45
2023-01-22T08:54:58.284Z,0.46
2023-01-22T08:57:26.011Z,0.47
2023-01-22T09:00:01.074Z,0.47
2023-01-22T09:02:29.423Z,0.45
2023-01-22T09:04:58.377Z,0.47
2023-01-22T09:07:26.092Z,0.49
2023-01-22T09:09:53.592Z,0.45
2023-01-22T09:12:21.120Z,0.43
2023-01-22T09:14:48.685Z,0.44
2023-01-22T09:17:16.223Z,0.46
2023-01-22T09:19:43.854Z,0.45
2023-01-22T09:22:12.879Z,0.44
2023-01-22T09:24:40.471Z,0.45
2023-01-22T09:27:09.084Z,0.44
2023-01-22T09:29:36.625Z,0.45
2023-01-22T09:32:04.457Z,0.45
2023-01-22T09:34:33.305Z,0.47
2023-01-22T09:37:05.256Z,0.48
2023-01-22T09:39:34.118Z,0.48
2023-01-22T09:42:04.746Z,0.48
2023-01-22T09:44:38.634Z,0.46
2023-01-22T09:47:10.687Z,0.51
2023-01-22T09:49:44.155Z,0.50
2023-01-22T09:52:12.561Z,0.49
2023-01-22T09:54:42.198Z,0.47
2023-01-22T09:57:26.472Z,0.46
2023-01-22T09:59:58.573Z,0.52
2023-01-22T10:02:31.253Z,0.56
2023-01-22T10:05:04.034Z,0.57
2023-01-22T10:07:35.011Z,0.64
2023-01-22T10:10:19.629Z,0.68
2023-01-22T10:12:50.819Z,0.69
2023-01-22T10:15:21.591Z,0.74
2023-01-22T10:17:49.294Z,0.76
2023-01-22T10:20:21.136Z,0.75
2023-01-22T10:22:49.225Z,0.80
2023-01-22T10:25:18.523Z,0.83
2023-01-22T10:27:47.660Z,0.85
2023-01-22T10:30:22.307Z,0.88
2023-01-22T10:32:59.814Z,0.93
2023-01-22T10:35:28.124Z,0.96
2023-01-22T10:37:57.915Z,0.98
2023-01-22T10:40:30.860Z,1.00
2023-01-22T10:43:03.687Z,0.99
2023-01-22T10:45:31.198Z,1.03
2023-01-22T10:48:07.407Z,1.02
2023-01-22T10:50:34.922Z,1.05
2023-01-22T10:53:04.673Z,1.09
2023-01-22T10:55:40.774Z,1.10
2023-01-22T10:58:17.285Z,1.14
2023-01-22T11:00:52.261Z,1.15
2023-01-22T11:03:22.915Z,1.15
2023-01-22T11:05:56.216Z,1.15
2023-01-22T11:08:29.266Z,1.16
2023-01-22T11:11:03.432Z,1.15
2023-01-22T11:13:39.705Z,1.14
2023-01-22T11:16:16.197Z,1.08
2023-01-22T11:18:47.611Z,1.07
2023-01-22T11:21:17.772Z,1.09
2023-01-22T11:23:50.316Z,1.08
2023-01-22T11:26:28.653Z,1.10
2023-01-22T11:29:04.738Z,1.12
2023-01-22T11:31:54.357Z,1.15
2023-01-22T11:34:39.263Z,1.16
2023-01-22T11:37:13.713Z,1.17
2023-01-22T11:39:55.195Z,1.21
2023-01-22T11:42:37.086Z,1.21
2023-01-22T11:45:17.107Z,1.18
2023-01-22T11:47:56.243Z,1.19
2023-01-22T11:50:29.012Z,1.20
2023-01-22T11:53:02.541Z,1.22
2023-01-22T11:55:50.175Z,1.21
2023-01-22T11:58:28.805Z,1.23
2023-01-22T12:01:16.105Z,1.26
2023-01-22T12:04:00.332Z,1.26
2023-01-22T12:06:45.319Z,1.30
2023-01-22T12:09:22.879Z,1.33
2023-01-22T12:12:04.315Z,1.36
2023-01-22T12:14:42.617Z,1.37
2023-01-22T12:17:23.896Z,1.37
2023-01-22T12:20:17.961Z,1.36
2023-01-22T12:22:52.984Z,1.34
2023-01-22T12:25:27.501Z,1.32
2023-01-22T12:28:00.620Z,1.34
2023-01-22T12:30:38.789Z,1.34
2023-01-22T12:33:10.235Z,1.37
2023-01-22T12:35:38.158Z,1.39
2023-01-22T12:38:14.931Z,1.45
2023-01-22T12:40:57.471Z,1.52
2023-01-22T12:43:35.012Z,1.60
2023-01-22T12:46:12.710Z,1.66
2023-01-22T12:48:49.093Z,1.72
2023-01-22T12:51:28.880Z,1.74
2023-01-22T12:53:56.431Z,1.77
2023-01-22T12:56:33.860Z,1.82
2023-01-22T12:59:01.395Z,1.83
2023-01-22T13:01:37.164Z,1.84
2023-01-22T13:04:07.693Z,1.85
2023-01-22T13:06:37.773Z,1.88
2023-01-22T13:09:07.464Z,1.87
2023-01-22T13:11:36.540Z,1.87
2023-01-22T13:14:20.154Z,1.84
2023-01-22T13:16:55.603Z,1.81
2023-01-22T13:19:25.066Z,1.79
2023-01-22T13:21:53.618Z,1.78
2023-01-22T13:24:22.493Z,1.77
2023-01-22T13:26:53.803Z,1.76
2023-01-22T13:29:27.023Z,1.75
2023-01-22T13:31:59.429Z,1.74
2023-01-22T13:34:28.675Z,1.75
2023-01-22T13:36:56.771Z,1.74
2023-01-22T13:39:26.987Z,1.71
2023-01-22T13:41:57.262Z,1.73
2023-01-22T13:44:27.723Z,1.76
2023-01-22T13:46:56.767Z,1.74
2023-01-22T13:49:25.834Z,1.70
2023-01-22T13:51:54.089Z,1.68
2023-01-22T13:54:28.399Z,1.68
2023-01-22T13:56:56.003Z,1.71
2023-01-22T13:59:27.362Z,1.73
2023-01-22T14:01:56.351Z,1.75
2023-01-22T14:04:35.489Z,1.75
2023-01-22T14:07:03.075Z,1.75
2023-01-22T14:09:32.886Z,1.74
2023-01-22T14:12:01.837Z,1.72
2023-01-22T14:14:40.122Z,1.71
2023-01-22T14:17:08.992Z,1.69
2023-01-22T14:19:37.403Z,1.69
2023-01-22T14:22:04.881Z,1.69
2023-01-22T14:24:32.349Z,1.70
2023-01-22T14:26:59.845Z,1.72
2023-01-22T14:29:27.916Z,1.76
2023-01-22T14:31:55.454Z,1.78
2023-01-22T14:34:24.265Z,1.80
2023-01-22T14:36:51.770Z,1.80
2023-01-22T14:39:19.284Z,1.82
2023-01-22T14:41:49.404Z,1.83
2023-01-22T14:44:16.912Z,1.83
2023-01-22T14:46:44.386Z,1.85
2023-01-22T14:49:11.872Z,1.84
2023-01-22T14:51:41.145Z,1.83
2023-01-22T14:54:08.616Z,1.83
2023-01-22T14:56:36.135Z,1.86
2023-01-22T14:59:04.541Z,1.89
2023-01-22T15:01:32.035Z,1.90
2023-01-22T15:03:59.562Z,1.90
2023-01-22T15:06:27.102Z,1.88
2023-01-22T15:08:55.917Z,1.84
2023-01-22T15:11:23.457Z,1.83
2023-01-22T15:13:52.715Z,1.83
2023-01-22T15:16:20.678Z,1.81
2023-01-22T15:18:48.180Z,1.82
2023-01-22T15:21:15.730Z,1.80
2023-01-22T15:23:43.237Z,1.76
2023-01-22T15:26:25.018Z,1.71
2023-01-22T15:28:52.508Z,1.72
2023-01-22T15:31:20.036Z,1.74
2023-01-22T15:33:47.609Z,1.76
2023-01-22T15:36:15.150Z,1.78
2023-01-22T15:38:42.676Z,1.76
2023-01-22T15:41:20.187Z,1.77
2023-01-22T15:43:51.547Z,1.75
2023-01-22T15:46:20.179Z,1.72
2023-01-22T15:48:48.061Z,1.69
2023-01-22T15:51:15.863Z,1.68
2023-01-22T15:53:48.436Z,1.68
2023-01-22T15:56:15.889Z,1.69
2023-01-22T15:58:43.348Z,1.68
2023-01-22T16:01:12.295Z,1.69
2023-01-22T16:03:39.781Z,1.70
2023-01-22T16:06:11.839Z,1.67
2023-01-22T16:08:39.593Z,1.69
2023-01-22T16:11:08.058Z,1.69
2023-01-22T16:13:35.666Z,1.68
2023-01-22T16:16:06.235Z,1.69
2023-01-22T16:18:36.328Z,1.68
2023-01-22T16:21:04.815Z,1.66
2023-01-22T16:23:33.522Z,1.59
2023-01-22T16:26:01.867Z,1.58
2023-01-22T16:28:29.390Z,1.55
2023-01-22T16:30:56.968Z,1.54
2023-01-22T16:33:28.998Z,1.53
2023-01-22T16:36:01.818Z,1.54
2023-01-22T16:38:29.951Z,1.52
2023-01-22T16:41:08.510Z,1.48
2023-01-22T16:43:36.088Z,1.48
2023-01-22T16:46:04.458Z,1.46
2023-01-22T16:48:31.941Z,1.48
2023-01-22T16:51:00.771Z,1.49
2023-01-22T16:53:28.329Z,1.46
2023-01-22T16:55:55.828Z,1.43
2023-01-22T16:58:23.327Z,1.47
2023-01-22T17:00:52.277Z,1.51
2023-01-22T17:03:19.753Z,1.56
2023-01-22T17:05:49.087Z,1.55
2023-01-22T17:08:17.887Z,1.51
2023-01-22T17:10:45.472Z,1.47
2023-01-22T17:13:13.090Z,1.46
2023-01-22T17:15:42.101Z,1.47
2023-01-22T17:18:09.630Z,1.48
2023-01-22T17:20:37.714Z,1.44
2023-01-22T17:23:05.211Z,1.43
2023-01-22T17:25:34.015Z,1.40
2023-01-22T17:28:01.480Z,1.38
2023-01-22T17:30:29.000Z,1.35
2023-01-22T17:32:56.504Z,1.39
2023-01-22T17:35:23.974Z,1.40
2023-01-22T17:37:51.481Z,1.37
2023-01-22T17:40:19.362Z,1.37
2023-01-22T17:42:48.173Z,1.35
2023-01-22T17:45:15.833Z,1.38
2023-01-22T17:47:44.207Z,1.36
2023-01-22T17:50:13.173Z,1.35
2023-01-22T17:52:41.180Z,1.32
2023-01-22T17:55:09.402Z,1.35
2023-01-22T17:57:36.877Z,1.37
2023-01-22T18:00:09.456Z,1.37
2023-01-22T18:02:36.955Z,1.34
2023-01-22T18:05:05.554Z,1.30
2023-01-22T18:07:33.040Z,1.26
2023-01-22T18:10:00.537Z,1.28
2023-01-22T18:12:28.044Z,1.26
2023-01-22T18:14:55.520Z,1.23
2023-01-22T18:17:25.071Z,1.23
2023-01-22T18:19:52.626Z,1.24
2023-01-22T18:22:20.521Z,1.24
2023-01-22T18:24:47.953Z,1.23
2023-01-22T18:27:16.485Z,1.24
2023-01-22T18:29:44.002Z,1.20
2023-01-22T18:32:11.473Z,1.20
2023-01-22T18:34:40.272Z,1.23
2023-01-22T18:37:07.793Z,1.24
2023-01-22T18:39:35.603Z,1.27
2023-01-22T18:42:03.165Z,1.25
2023-01-22T18:44:30.661Z,1.21
2023-01-22T18:46:59.979Z,1.21
2023-01-22T18:49:28.911Z,1.17
2023-01-22T18:52:00.844Z,1.14
2023-01-22T18:54:29.114Z,1.16
2023-01-22T18:56:57.143Z,1.14
2023-01-22T18:59:24.672Z,1.16
2023-01-22T19:01:52.449Z,1.20
2023-01-22T19:04:21.948Z,1.20
2023-01-22T19:06:54.659Z,1.23
2023-01-22T19:09:29.421Z,1.26
2023-01-22T19:11:58.770Z,1.30
2023-01-22T19:14:30.632Z,1.31
2023-01-22T19:17:03.375Z,1.33
2023-01-22T19:19:34.985Z,1.35
2023-01-22T19:22:04.429Z,1.32
2023-01-22T19:25:39.966Z,1.30
2023-01-22T19:30:55.528Z,1.19
2023-01-22T19:33:33.463Z,1.18
2023-01-22T19:36:02.259Z,1.17
2023-01-22T19:38:30.859Z,1.16
2023-01-22T19:40:59.048Z,1.12
2023-01-22T19:43:27.075Z,1.09
2023-01-22T19:45:56.576Z,1.12
2023-01-22T19:48:27.366Z,1.15
2023-01-22T19:51:04.207Z,1.17
2023-01-22T19:53:36.004Z,1.16
2023-01-22T19:56:15.461Z,1.15
2023-01-22T19:58:43.064Z,1.14
2023-01-22T20:01:13.552Z,1.14
2023-01-22T20:03:44.782Z,1.17
2023-01-22T20:06:22.047Z,1.18
2023-01-22T20:08:52.735Z,1.14
2023-01-22T20:11:20.846Z,1.11
2023-01-22T20:13:49.395Z,1.06
2023-01-22T20:16:24.960Z,1.06
2023-01-22T20:18:55.710Z,1.08
2023-01-22T20:21:27.890Z,1.10
2023-01-22T20:24:05.426Z,1.14
2023-01-22T20:26:38.999Z,1.16
2023-01-22T20:29:13.558Z,1.13
2023-01-22T20:31:46.943Z,1.06
2023-01-22T20:34:18.628Z,1.05
2023-01-22T20:36:48.157Z,1.06
2023-01-22T20:39:30.628Z,1.11
2023-01-22T20:42:05.402Z,1.11
2023-01-22T20:44:40.617Z,1.11
2023-01-22T20:47:14.736Z,1.09
2023-01-22T20:49:46.479Z,1.05
2023-01-22T20:52:33.460Z,1.02
2023-01-22T20:55:13.675Z,1.01
2023-01-22T20:57:46.055Z,0.99
2023-01-22T21:00:19.605Z,0.96
2023-01-22T21:02:58.773Z,1.01
2023-01-22T21:05:32.390Z,1.03
2023-01-22T21:08:09.631Z,1.03
2023-01-22T21:10:44.481Z,1.02
2023-01-22T21:13:16.743Z,1.01
2023-01-22T21:15:49.252Z,1.01
2023-01-22T21:18:28.133Z,1.01
2023-01-22T21:21:07.216Z,1.01
2023-01-22T21:23:42.241Z,1.00
2023-01-22T21:26:16.189Z,0.99
2023-01-22T21:28:52.404Z,0.97
2023-01-22T21:31:25.162Z,0.96
2023-01-22T21:34:04.513Z,1.03
2023-01-22T21:36:43.808Z,1.02
2023-01-22T21:39:21.464Z,1.00
2023-01-22T21:42:13.129Z,1.03
2023-01-22T21:45:05.275Z,1.07
2023-01-22T21:47:36.011Z,1.10
2023-01-22T21:50:18.242Z,1.07
2023-01-22T21:52:54.463Z,1.07
2023-01-22T21:55:24.929Z,1.09
2023-01-22T21:57:56.869Z,1.06
2023-01-22T22:00:28.540Z,1.05
2023-01-22T22:03:01.169Z,1.07
2023-01-22T22:05:31.870Z,1.11
2023-01-22T22:08:03.335Z,1.14
2023-01-22T22:10:35.534Z,1.15
2023-01-22T22:13:05.418Z,1.14
2023-01-22T22:15:41.870Z,1.12
2023-01-22T22:18:20.081Z,1.16
2023-01-22T22:21:00.018Z,1.21
2023-01-22T22:23:36.314Z,1.22
2023-01-22T22:26:11.940Z,1.23
2023-01-22T22:28:45.386Z,1.16
2023-01-22T22:31:24.068Z,1.14
2023-01-22T22:33:59.286Z,1.09
2023-01-22T22:36:36.959Z,1.03
2023-01-22T22:39:09.620Z,1.00
2023-01-22T22:41:39.413Z,0.94
2023-01-22T22:44:21.927Z,0.91
2023-01-22T22:46:55.450Z,0.89
2023-01-22T22:49:26.595Z,0.88
2023-01-22T22:52:03.433Z,0.84
2023-01-22T22:54:37.594Z,0.84
2023-01-22T22:57:14.491Z,0.81
2023-01-22T22:59:44.291Z,0.79
2023-01-22T23:02:17.215Z,0.81
2023-01-22T23:04:49.668Z,0.80
2023-01-22T23:07:23.628Z,0.81
2023-01-22T23:09:59.591Z,0.85
2023-01-22T23:12:30.259Z,0.89
2023-01-22T23:18:02.168Z,0.90
2023-01-22T23:20:37.033Z,0.88
2023-01-22T23:23:14.802Z,0.85
2023-01-22T23:25:50.087Z,0.84
2023-01-22T23:28:28.946Z,0.84
2023-01-22T23:31:09.440Z,0.81
2023-01-22T23:33:44.774Z,0.79
2023-01-22T23:36:23.037Z,0.74
2023-01-22T23:38:57.122Z,0.73
2023-01-22T23:41:29.773Z,0.74
2023-01-22T23:44:07.303Z,0.73
2023-01-22T23:46:44.591Z,0.74
2023-01-22T23:49:17.009Z,0.73
2023-01-22T23:51:51.176Z,0.71
2023-01-22T23:54:26.249Z,0.69
2023-01-22T23:56:59.232Z,0.68
2023-01-22T23:59:34.242Z,0.72
